Flight Track Log - Related Links

Times and Time Zones

All times are in EDT time to prevent confusion due to time zone crossing. See the SWA2975 flight status page for this flight to view local times or setup timezone preferences in your user account.

Time Position Orientation Groundspeed Altitude Reporting Facility
EDT Latitude Longitude Course Direction KTS MPH feet Rate Location/Type
Thu 09:47:32 PM 33.6661 -84.5181 293° West 271 312 5,200  Level Atlanta Center
Thu 09:48:32 PM 33.6992 -84.5806 302° West 247 284 9,100 3,550 Climbing Atlanta Center
Thu 09:49:32 PM 33.7764 -84.5861 357° North 276 318 12,300 3,300 Climbing Atlanta Center
Thu 09:50:32 PM 33.8767 -84.5842 North 303 349 15,700 3,200 Climbing Atlanta Center
Thu 09:51:32 PM 33.9747 -84.5850 360° North 328 377 18,700 2,900 Climbing Atlanta Center
Thu 09:52:32 PM 34.0769 -84.5881 359° North 349 402 21,500 2,800 Climbing Atlanta Center
Thu 09:53:32 PM 34.1894 -84.5914 359° North 393 452 24,300 2,550 Climbing Atlanta Center
Thu 09:54:32 PM 34.3022 -84.5994 357° North 405 466 26,600 2,100 Climbing Atlanta Center
Thu 09:55:32 PM 34.4169 -84.6256 349° North 405 466 28,500 1,950 Climbing Atlanta Center
Thu 09:56:32 PM 34.5211 -84.6489 350° North 410 472 30,500 2,250 Climbing Atlanta Center
Thu 09:57:32 PM 34.6358 -84.6597 356° North 418 481 33,000 1,750 Climbing Atlanta Center
Thu 09:58:32 PM 34.7569 -84.6733 355° North 405 466 34,000 500 Climbing Atlanta Center
Thu 09:59:32 PM 34.8717 -84.6844 355° North 405 466 34,000  Level Atlanta Center
Thu 10:00:32 PM 34.9842 -84.6978 354° North 405 466 34,000  Level Atlanta Center
Thu 10:01:32 PM 35.1008 -84.7089 356° North 405 466 34,000  Level Atlanta Center
Thu 10:02:32 PM 35.2178 -84.7175 357° North 405 466 34,000  Level Atlanta Center
Thu 10:03:32 PM 35.3303 -84.7286 355° North 405 466 34,000  Level Atlanta Center
Thu 10:04:32 PM 35.4450 -84.7397 355° North 405 466 34,000  Level Atlanta Center
Thu 10:05:32 PM 35.5597 -84.7511 355° North 405 466 34,000  Level Atlanta Center
Thu 10:06:32 PM 35.6722 -84.7597 356° North 405 466 34,000  Level Atlanta Center
Thu 10:07:32 PM 35.7850 -84.7683 356° North 405 466 34,000  Level Atlanta Center
Thu 10:09:44 PM 36.0253 -84.7922 355° North 405 466 34,000  Level Indianapolis Center
Thu 10:10:45 PM 36.1353 -84.8033 355° North 402 463 34,000 -934 Level Indianapolis Center
Thu 10:11:46 PM 36.2442 -84.8136 356° North 396 456 32,100 -1,967 Descending Indianapolis Center
Thu 10:12:47 PM 36.3564 -84.8247 355° North 400 460 30,000 -1,024 Descending Indianapolis Center
Thu 10:13:49 PM 36.4911 -84.8386 355° North 404 465 30,000 -390 Level Indianapolis Center
Thu 10:14:50 PM 36.5997 -84.8486 356° North 396 456 29,200 -934 Descending Indianapolis Center
Thu 10:15:51 PM 36.7050 -84.8581 356° North 382 440 28,100 -1,033 Descending Indianapolis Center
Thu 10:16:52 PM 36.8097 -84.8692 355° North 378 435 27,100 -984 Descending Indianapolis Center
Thu 10:17:53 PM 36.9111 -84.8794 355° North 368 423 26,100 -1,082 Descending Indianapolis Center
Thu 10:18:54 PM 37.0106 -84.8903 355° North 358 412 24,900 -1,377 Descending Indianapolis Center
Thu 10:19:55 PM 37.1083 -84.8975 357° North 340 391 23,300 -1,820 Descending Indianapolis Center
Thu 10:20:56 PM 37.1906 -84.9075 354° North 300 345 21,200 -2,115 Descending Indianapolis Center
Thu 10:21:57 PM 37.2706 -84.9156 355° North 288 331 19,000 -1,820 Descending Indianapolis Center
Thu 10:22:58 PM 37.3483 -84.9231 356° North 280 322 17,500 -1,672 Descending Indianapolis Center
Thu 10:23:59 PM 37.4258 -84.9306 356° North 276 318 15,600 -1,721 Descending Indianapolis Center
Thu 10:25:00 PM 37.5031 -84.9383 355° North 276 318 14,000 -1,574 Descending Indianapolis Center
Thu 10:26:01 PM 37.5797 -84.9458 356° North 275 316 12,400 -1,525 Descending Indianapolis Center
Thu 10:27:02 PM 37.6550 -84.9567 354° North 272 313 10,900 -1,180 Descending Indianapolis Center
Thu 10:28:03 PM 37.7031 -85.0208 313° West 252 290 10,000 -393 Descending Indianapolis Center
Thu 10:29:04 PM 37.7542 -85.0914 313° West 268 308 10,100 49 Climbing Indianapolis Center
Thu 10:30:06 PM 37.7928 -85.1992 294° West 286 329 10,100 -98 Level Indianapolis Center
Thu 10:31:07 PM 37.8158 -85.2947 287° West 283 326 9,900 -541 Descending Indianapolis Center
Thu 10:32:08 PM 37.8356 -85.3675 289° West 255 293 9,000 -1,131 Descending Indianapolis Center
Thu 10:33:09 PM 37.8569 -85.4542 287° West 255 293 7,600 -1,426 Descending Indianapolis Center
Thu 10:34:10 PM 37.8781 -85.5383 288° West 252 290 6,100 -1,131 Descending Indianapolis Center
Thu 10:35:11 PM 37.8989 -85.6225 287° West 251 289 5,300 -639 Descending Indianapolis Center
Thu 10:36:12 PM 37.9389 -85.6650 320° Northwest 229 264 4,800 -787 Descending Indianapolis Center
Thu 10:37:13 PM 37.9997 -85.6867 344° North 202 232 3,700 -1,033 Descending Indianapolis Center
Thu 10:38:14 PM 38.0506 -85.7031 346° North 193 222 2,700 -738 Descending Indianapolis Center
Thu 10:39:15 PM 38.0897 -85.7156 346° North 186 214 2,200 -492 Descending Indianapolis Center
Thu 10:41:00 PM 38.1741 -85.7365 345° North  Level Estimated
Thu 10:48:00 PM 38.1741 -85.7365 208° Southwest  Level Estimated
Thu 10:49:00 PM 38.1741 -85.7365 208° Southwest  Level Estimated

Login

Don't have an account? Register now (free) for customized features, flight alerts, and more!